Terminal Aerodrome Forecast
Issued by NWS Bismarck, ND

Home | Current Version | Previous Version | Graphics & Text | Print | Product List | Glossary On
Versions: 1 2 3 4 5 6 7 8 9 10 11 12 13 14 15 16 17
000
FTUS43 KBIS 240500
TAFBIS
TAF
KBIS 240536Z 2406/2506 27004KT P6SM OVC013
      TEMPO 2408/2412 3SM BR OVC008
     FM241400 19006KT P6SM SCT020 SCT070
     FM241600 19010KT P6SM BKN100
     FM241900 23012KT P6SM BKN040 OVC080
     FM250400 34008KT P6SM BKN020 OVC040=

USA.gov is the U.S. government's official web portal to all federal, state and local government web resources and services.